Aviation Digital Data Service (ADDS)

Output produced by METARs form (0607 UTC 29 March 2015)
found at http://aviationweather.gov/adds/metars/
 
KCAR 290520Z 2906/3006 32007KT P6SM SCT110 
     FM292200 24007KT P6SM SCT250